ENRAESUT

Guest
Details From ENRA - Mo I Rana Rossvoll
To ESUT - Hemavan
Flight Number -
Tags Generated
Created
Modified
Stats Distance 38 nm / 71 km
Max Altitude 0 ft / 0 m
Waypoints 2
Social Downloads 4
Likes 0
Share VATSIM

Download

Looking for another format? Having issues loading an existing format? Contact us
Advertisement - Login to hide

Notes

Generated

Route

ENRA ESUT

ID Type Via Altitude Latitude Longitude Leg Dist Tot Dist Heading (true) Name
O ENRA APT - 0 ft / 0 m 66.36667˚ 14.29540˚ - 0 nm - -
O ESUT APT - 0 ft / 0 m 65.81205˚ 15.07520˚ 38 nm 38 nm 150° / 151° HEMAVAN

Altitude Profile

Advertisement - Login to hide

ENRA

Details ICAO ENRA (MQN)
Name Mo i Rana Rossvoll
Region Norway
Timezone Europe/Oslo (UTC+1.0)
Stats Elevation 226 ft / 69 m (AMSL)
Location 66.363838° 14.301646°
Runways 1
Magnetic Variation 5.532° E

METAR

ENRA 181650Z 11004KT 9999 SCT020 BKN030 M03/M04 Q1012

Decode

TAF

Not found

Departure Runways

ID Width Length Bearing (true) Bearing (mag) Surface Threshold Offset Overrun Length
14 98 ft / 30 m 2,759 ft / 841 m 138.49° 132.96° Asphalt 0 ft / 0 m 0 ft / 0 m
32 98 ft / 30 m 2,759 ft / 841 m 318.51° 312.98° Asphalt 0 ft / 0 m 0 ft / 0 m

ESUT

Details ICAO ESUT (HMV)
Name HEMAVAN
Region Sweden
Timezone Europe/Stockholm (UTC+1.0)
Stats Elevation 1,503 ft / 458 m (AMSL)
Location 65.805675° 15.083265°
Runways 1
Magnetic Variation 5.849° E

METAR

ESUT 181650Z AUTO VRB03KT 9999 FEW031/// M03/M04 Q1009

Decode

TAF

Not found

Destination Runways

ID Width Length Bearing (true) Bearing (mag) Surface Threshold Offset Overrun Length
15 98 ft / 30 m 5,239 ft / 1,597 m 152.57° 146.72° Asphalt 197 ft / 60 m 0 ft / 0 m
33 98 ft / 30 m 5,239 ft / 1,597 m 332.58° 326.73° Asphalt 482 ft / 147 m 0 ft / 0 m

Approach Navaids

Runway Type Ident Frequency Range Bearing (true) Bearing (mag) Slope Elevation
33 Localiser IUT 110.10 MHz 18 nm / 33 km 332.78° 326.93° - 1,503 ft / 458 m (AMSL)
33 Glidescope IUT 110.10 MHz 10 nm / 19 km 332.57° 326.73° 3.00° 1,503 ft / 458 m (AMSL)
33 DME IUT 110.10 MHz 18 nm / 33 km - - - 1,539 ft / 469 m (AMSL)